Time,TemperatureF,DewpointF,PressureIn,WindDirection,WindDirectionDegrees,WindSpeedMPH,WindSpeedGustMPH,Humidity,HourlyPrecipIn,Conditions,Clouds,dailyrainin,SoftwareType,DateUTC
2013-01-20 00:00:00,47.1,30.9,29.73,ESE,108,7.0,19.0,53,0.00,RMK !SN!,RMK !SN!,0.00,WUHU216DAVISVP2,2013-01-20 05:00:00,
2013-01-20 00:01:00,47.1,30.9,29.73,ENE,77,9.0,19.0,53,0.00,RMK !SN!,RMK !SN!,0.00,WUHU216DAVISVP2,2013-01-20 05:01:00,
2013-01-20 00:02:00,47.0,30.8,29.73,East,91,8.0,19.0,53,0.00,RMK !SN!,RMK !SN!,0.00,WUHU216DAVISVP2,2013-01-20 05:02:00,
2013-01-20 00:07:00,46.8,30.6,29.73,NNE,18,3.0,25.0,53,0.00,RMK !SN!,RMK !SN!,0.00,WUHU216DAVISVP2,2013-01-20 05:07:00,
2013-01-20 00:12:00,46.7,30.9,29.73,ENE,61,10.0,25.0,54,0.00,RMK !SN!,RMK !SN!,0.00,WUHU216DAVISVP2,2013-01-20 05:12:00,
2013-01-20 00:17:00,46.6,31.3,29.73,NE,39,3.0,24.0,55,0.00,RMK !SN!,RMK !SN!,0.00,WUHU216DAVISVP2,2013-01-20 05:17:00,
2013-01-20 00:22:00,46.6,31.3,29.72,East,91,5.0,22.0,55,0.00,RMK !SN!,RMK !SN!,0.00,WUHU216DAVISVP2,2013-01-20 05:22:00,
2013-01-20 00:27:00,46.5,31.2,29.72,SW,219,9.0,22.0,55,0.00,RMK !SN!,RMK !SN!,0.00,WUHU216DAVISVP2,2013-01-20 05:27:00,
2013-01-20 00:32:00,46.4,31.6,29.71,WSW,253,7.0,22.0,56,0.00,RMK !SN!,RMK !SN!,0.00,WUHU216DAVISVP2,2013-01-20 05:32:00,
2013-01-20 00:37:00,46.2,31.4,29.72,ENE,77,7.0,20.0,56,0.00,RMK !SN!,RMK !SN!,0.00,WUHU216DAVISVP2,2013-01-20 05:37:00,
2013-01-20 00:42:00,46.1,31.7,29.72,East,89,2.0,19.0,57,0.00,RMK !SN!,RMK !SN!,0.00,WUHU216DAVISVP2,2013-01-20 05:42:00,
2013-01-20 00:47:00,45.9,32.0,29.71,ESE,120,5.0,21.0,58,0.00,RMK !SN!,RMK !SN!,0.00,WUHU216DAVISVP2,2013-01-20 05:47:00,
2013-01-20 00:52:00,45.7,31.8,29.72,ENE,64,11.0,21.0,58,0.00,RMK !SN!,RMK !SN!,0.00,WUHU216DAVISVP2,2013-01-20 05:52:00,
2013-01-20 00:57:00,45.6,32.2,29.71,East,82,12.0,20.0,59,0.00,RMK !SN!,RMK !SN!,0.00,WUHU216DAVISVP2,2013-01-20 05:57:00,
2013-01-20 01:02:00,45.4,32.0,29.71,NE,36,9.0,21.0,59,0.00,RMK !SN!,RMK !SN!,0.00,WUHU216DAVISVP2,2013-01-20 06:02:00,
2013-01-20 01:07:00,45.1,32.0,29.70,NE,46,7.0,21.0,60,0.00,RMK !SN!,RMK !SN!,0.00,WUHU216DAVISVP2,2013-01-20 06:07:00,
2013-01-20 01:12:00,45.0,32.0,29.70,WNW,302,4.0,20.0,60,0.00,RMK !SN!,RMK !SN!,0.00,WUHU216DAVISVP2,2013-01-20 06:12:00,
2013-01-20 01:17:00,44.8,32.2,29.70,ENE,72,13.0,20.0,61,0.00,RMK !SN!,RMK !SN!,0.00,WUHU216DAVISVP2,2013-01-20 06:17:00,
2013-01-20 01:22:00,44.7,32.6,29.70,ENE,68,10.0,18.0,62,0.00,RMK !SN!,RMK !SN!,0.00,WUHU216DAVISVP2,2013-01-20 06:22:00,
2013-01-20 01:27:00,44.5,32.4,29.70,East,84,7.0,16.0,62,0.00,RMK !SN!,RMK !SN!,0.00,WUHU216DAVISVP2,2013-01-20 06:27:00,
2013-01-20 01:32:00,44.4,32.7,29.70,ESE,111,6.0,16.0,63,0.00,RMK !SN!,RMK !SN!,0.00,WUHU216DAVISVP2,2013-01-20 06:32:00,
2013-01-20 01:37:00,44.4,32.7,29.70,SE,142,4.0,15.0,63,0.00,RMK !SN!,RMK !SN!,0.00,WUHU216DAVISVP2,2013-01-20 06:37:00,
2013-01-20 01:42:00,44.3,32.6,29.70,East,85,6.0,17.0,63,0.00,RMK !SN!,RMK !SN!,0.00,WUHU216DAVISVP2,2013-01-20 06:42:00,
2013-01-20 01:47:00,44.3,33.0,29.71,ENE,68,3.0,17.0,64,0.00,RMK !SN!,RMK !SN!,0.00,WUHU216DAVISVP2,2013-01-20 06:47:00,
2013-01-20 01:52:00,44.2,32.9,29.70,ESE,106,3.0,17.0,64,0.00,RMK !SN!,RMK !SN!,0.00,WUHU216DAVISVP2,2013-01-20 06:52:00,
2013-01-20 01:57:00,44.1,32.8,29.70,East,86,4.0,17.0,64,0.00,RMK !SN!,RMK !SN!,0.00,WUHU216DAVISVP2,2013-01-20 06:57:00,
2013-01-20 02:02:00,44.0,32.7,29.70,East,83,5.0,19.0,64,0.00,RMK !SN!,RMK !SN!,0.00,WUHU216DAVISVP2,2013-01-20 07:02:00,
2013-01-20 02:07:00,44.0,32.6,29.71,East,85,2.0,20.0,64,0.00,RMK !SN!,RMK !SN!,0.00,WUHU216DAVISVP2,2013-01-20 07:07:00,
2013-01-20 02:12:00,43.9,33.0,29.70,North,6,5.0,20.0,65,0.00,RMK !SN!,RMK !SN!,0.00,WUHU216DAVISVP2,2013-01-20 07:12:00,
2013-01-20 02:17:00,43.8,32.9,29.71,NNW,343,8.0,20.0,65,0.00,RMK !SN!,RMK !SN!,0.00,WUHU216DAVISVP2,2013-01-20 07:17:00,
2013-01-20 02:22:00,43.7,32.8,29.71,NNE,32,2.0,20.0,65,0.00,RMK !SN!,RMK !SN!,0.00,WUHU216DAVISVP2,2013-01-20 07:22:00,
2013-01-20 02:27:00,43.6,33.1,29.71,SE,128,3.0,19.0,66,0.00,RMK !SN!,RMK !SN!,0.00,WUHU216DAVISVP2,2013-01-20 07:27:00,
2013-01-20 02:32:00,43.6,33.1,29.71,East,91,7.0,19.0,66,0.00,RMK !SN!,RMK !SN!,0.00,WUHU216DAVISVP2,2013-01-20 07:32:00,
2013-01-20 02:37:00,43.6,33.1,29.71,ENE,69,8.0,18.0,66,0.00,RMK !SN!,RMK !SN!,0.00,WUHU216DAVISVP2,2013-01-20 07:37:00,
2013-01-20 02:42:00,43.6,33.1,29.72,ENE,63,8.0,29.0,66,0.00,RMK !SN!,RMK !SN!,0.00,WUHU216DAVISVP2,2013-01-20 07:42:00,
2013-01-20 02:47:00,43.6,33.5,29.72,NE,46,4.0,29.0,67,0.00,RMK !SN!,RMK !SN!,0.00,WUHU216DAVISVP2,2013-01-20 07:47:00,
2013-01-20 02:52:00,43.5,33.4,29.72,East,87,3.0,28.0,67,0.00,RMK !SN!,RMK !SN!,0.00,WUHU216DAVISVP2,2013-01-20 07:52:00,
2013-01-20 02:57:00,43.5,33.4,29.73,WNW,288,5.0,28.0,67,0.00,RMK !SN!,RMK !SN!,0.00,WUHU216DAVISVP2,2013-01-20 07:57:00,
2013-01-20 03:02:00,43.5,33.4,29.73,ENE,77,5.0,23.0,67,0.00,RMK !SN!,RMK !SN!,0.00,WUHU216DAVISVP2,2013-01-20 08:02:00,
2013-01-20 03:07:00,43.3,33.2,29.73,East,82,5.0,23.0,67,0.00,RMK !SN!,RMK !SN!,0.00,WUHU216DAVISVP2,2013-01-20 08:07:00,
2013-01-20 03:12:00,43.2,33.3,29.73,SE,131,2.0,23.0,68,0.00,RMK !SN!,RMK !SN!,0.00,WUHU216DAVISVP2,2013-01-20 08:12:00,
2013-01-20 03:17:00,43.1,33.3,29.73,ESE,112,3.0,22.0,68,0.00,RMK !SN!,RMK !SN!,0.00,WUHU216DAVISVP2,2013-01-20 08:17:00,
2013-01-20 03:22:00,43.0,32.9,29.73,NE,46,7.0,17.0,67,0.00,RMK !SN!,RMK !SN!,0.00,WUHU216DAVISVP2,2013-01-20 08:22:00,
2013-01-20 03:27:00,42.8,32.3,29.73,NNE,16,6.0,19.0,66,0.00,RMK !SN!,RMK !SN!,0.00,WUHU216DAVISVP2,2013-01-20 08:27:00,
2013-01-20 03:32:00,42.7,32.2,29.73,NW,304,9.0,19.0,66,0.00,RMK !SN!,RMK !SN!,0.00,WUHU216DAVISVP2,2013-01-20 08:32:00,
2013-01-20 03:37:00,42.6,32.1,29.73,ENE,72,10.0,17.0,66,0.00,RMK !SN!,RMK !SN!,0.00,WUHU216DAVISVP2,2013-01-20 08:37:00,
2013-01-20 03:42:00,42.4,30.8,29.73,ENE,57,8.0,17.0,63,0.00,RMK !SN!,RMK !SN!,0.00,WUHU216DAVISVP2,2013-01-20 08:42:00,
2013-01-20 03:47:00,42.1,30.1,29.74,East,91,8.0,21.0,62,0.00,RMK !SN!,RMK !SN!,0.00,WUHU216DAVISVP2,2013-01-20 08:47:00,
2013-01-20 03:52:00,42.9,30.9,29.75,SW,219,7.0,21.0,62,0.00,RMK !SN!,RMK !SN!,0.00,WUHU216DAVISVP2,2013-01-20 08:52:00,
2013-01-20 03:57:00,42.9,30.9,29.75,SW,219,7.0,19.0,62,0.00,RMK !SN!,RMK !SN!,0.00,WUHU216DAVISVP2,2013-01-20 08:57:00,
2013-01-20 04:45:00,40.4,26.0,29.78,SW,222,1.0,11.0,56,0.00,RMK !SN!,RMK !SN!,0.00,WUHU216DAVISVP2,2013-01-20 09:45:00,
2013-01-20 04:50:00,40.2,25.8,29.78,South,170,2.0,12.0,56,0.00,RMK !SN!,RMK !SN!,0.00,WUHU216DAVISVP2,2013-01-20 09:50:00,
2013-01-20 04:55:00,40.0,25.6,29.79,SE,134,3.0,13.0,56,0.00,RMK !SN!,RMK !SN!,0.00,WUHU216DAVISVP2,2013-01-20 09:55:00,
2013-01-20 05:00:00,39.8,25.8,29.79,ESE,110,1.0,13.0,57,0.00,RMK !SN!,RMK !SN!,0.00,WUHU216DAVISVP2,2013-01-20 10:00:00,
2013-01-20 05:05:00,39.7,25.7,29.79,SSW,207,1.0,13.0,57,0.00,RMK !SN!,RMK !SN!,0.00,WUHU216DAVISVP2,2013-01-20 10:05:00,
2013-01-20 05:10:00,39.5,25.6,29.80,WSW,242,4.0,13.0,57,0.00,RMK !SN!,RMK !SN!,0.00,WUHU216DAVISVP2,2013-01-20 10:10:00,
2013-01-20 05:15:00,38.8,24.5,29.81,NNE,26,2.0,13.0,56,0.00,RMK !SN!,RMK !SN!,0.00,WUHU216DAVISVP2,2013-01-20 10:15:00,
2013-01-20 05:20:00,37.4,24.4,29.82,NNE,20,6.0,12.0,59,0.00,RMK !SN!,RMK !SN!,0.00,WUHU216DAVISVP2,2013-01-20 10:20:00,
2013-01-20 05:25:00,36.3,23.8,29.83,WNW,298,4.0,14.0,60,0.00,RMK !SN!,RMK !SN!,0.00,WUHU216DAVISVP2,2013-01-20 10:25:00,
2013-01-20 05:30:00,35.5,22.6,29.84,NNW,340,5.0,19.0,59,0.00,RMK !SN!,RMK !SN!,0.00,WUHU216DAVISVP2,2013-01-20 10:30:00,
2013-01-20 05:35:00,34.7,21.4,29.84,East,99,2.0,19.0,58,0.00,RMK !SN!,RMK !SN!,0.00,WUHU216DAVISVP2,2013-01-20 10:35:00,
2013-01-20 05:40:00,34.4,21.5,29.85,WSW,245,2.0,18.0,59,0.00,RMK !SN!,RMK !SN!,0.00,WUHU216DAVISVP2,2013-01-20 10:40:00,
2013-01-20 05:45:00,34.1,21.3,29.85,NW,318,0.0,18.0,59,0.00,RMK !SN!,RMK !SN!,0.00,WUHU216DAVISVP2,2013-01-20 10:45:00,
2013-01-20 05:50:00,33.7,20.9,29.86,West,270,1.0,16.0,59,0.00,RMK !SN!,RMK !SN!,0.00,WUHU216DAVISVP2,2013-01-20 10:50:00,
2013-01-20 05:55:00,33.3,21.3,29.88,East,82,0.0,14.0,61,0.00,RMK !SN!,RMK !SN!,0.00,WUHU216DAVISVP2,2013-01-20 10:55:00,
2013-01-20 06:00:00,32.9,21.3,29.88,West,259,0.0,14.0,62,0.00,RMK !SN!,RMK !SN!,0.00,WUHU216DAVISVP2,2013-01-20 11:00:00,
2013-01-20 06:05:00,32.4,20.8,29.89,WNW,287,3.0,14.0,62,0.00,RMK !SN!,RMK !SN!,0.00,WUHU216DAVISVP2,2013-01-20 11:05:00,
2013-01-20 06:10:00,31.8,19.5,29.89,SSW,203,2.0,14.0,60,0.00,RMK !SN!,RMK !SN!,0.00,WUHU216DAVISVP2,2013-01-20 11:10:00,
2013-01-20 06:15:00,31.3,18.6,29.90,SW,236,4.0,13.0,59,0.00,RMK !SN!,RMK !SN!,0.00,WUHU216DAVISVP2,2013-01-20 11:15:00,
2013-01-20 06:20:00,30.8,17.7,29.91,SSW,195,3.0,13.0,58,0.00,RMK !SN!,RMK !SN!,0.00,WUHU216DAVISVP2,2013-01-20 11:20:00,
2013-01-20 06:25:00,30.5,18.3,29.91,SW,222,4.0,11.0,60,0.00,RMK !SN!,RMK !SN!,0.00,WUHU216DAVISVP2,2013-01-20 11:25:00,
2013-01-20 06:30:00,30.3,17.3,29.91,West,276,2.0,10.0,58,0.00,RMK !SN!,RMK !SN!,0.00,WUHU216DAVISVP2,2013-01-20 11:30:00,
2013-01-20 06:35:00,30.0,17.0,29.91,NNE,33,6.0,10.0,58,0.00,RMK !SN!,RMK !SN!,0.00,WUHU216DAVISVP2,2013-01-20 11:35:00,
2013-01-20 06:40:00,29.8,17.2,29.92,SSW,208,2.0,16.0,59,0.00,RMK !SN!,RMK !SN!,0.00,WUHU216DAVISVP2,2013-01-20 11:40:00,
2013-01-20 06:45:00,29.7,17.5,29.92,WNW,288,3.0,16.0,60,0.00,RMK !SN!,RMK !SN!,0.00,WUHU216DAVISVP2,2013-01-20 11:45:00,
2013-01-20 06:50:00,29.7,18.3,29.93,SSW,207,0.0,17.0,62,0.00,RMK !SN!,RMK !SN!,0.00,WUHU216DAVISVP2,2013-01-20 11:50:00,
2013-01-20 06:55:00,29.7,18.7,29.93,WNW,301,0.0,17.0,63,0.00,RMK !SN!,RMK !SN!,0.00,WUHU216DAVISVP2,2013-01-20 11:55:00,
2013-01-20 07:00:00,29.4,20.5,29.94,ESE,105,3.0,17.0,69,0.00,RMK !SN!,RMK !SN!,0.00,WUHU216DAVISVP2,2013-01-20 12:00:00,
2013-01-20 07:05:00,29.2,20.7,29.94,NNW,335,5.0,12.0,70,0.00,RMK !SN!,RMK !SN!,0.00,WUHU216DAVISVP2,2013-01-20 12:05:00,
2013-01-20 07:10:00,28.9,20.4,29.94,SE,142,3.0,11.0,70,0.00,RMK !SN!,RMK !SN!,0.00,WUHU216DAVISVP2,2013-01-20 12:10:00,
2013-01-20 07:15:00,28.7,20.2,29.95,SE,142,1.0,11.0,70,0.00,RMK !SN!,RMK !SN!,0.00,WUHU216DAVISVP2,2013-01-20 12:15:00,
2013-01-20 07:20:00,28.6,20.1,29.96,NW,309,2.0,11.0,70,0.00,RMK !SN!,RMK !SN!,0.00,WUHU216DAVISVP2,2013-01-20 12:20:00,
2013-01-20 07:25:00,28.4,19.9,29.96,SSW,194,2.0,9.0,70,0.00,RMK !SN!,RMK !SN!,0.00,WUHU216DAVISVP2,2013-01-20 12:25:00,
2013-01-20 07:30:00,28.2,19.7,29.96,SE,143,2.0,12.0,70,0.00,RMK !SN!,RMK !SN!,0.00,WUHU216DAVISVP2,2013-01-20 12:30:00,
2013-01-20 07:35:00,28.1,19.6,29.97,SSE,159,0.0,12.0,70,0.00,RMK !SN!,RMK !SN!,0.00,WUHU216DAVISVP2,2013-01-20 12:35:00,
2013-01-20 07:40:00,27.9,19.8,29.97,NNE,23,2.0,12.0,71,0.00,RMK !SN!,RMK !SN!,0.00,WUHU216DAVISVP2,2013-01-20 12:40:00,
2013-01-20 07:45:00,27.8,19.3,29.98,WNW,294,1.0,15.0,70,0.00,RMK !SN!,RMK !SN!,0.00,WUHU216DAVISVP2,2013-01-20 12:45:00,
2013-01-20 07:50:00,27.7,19.2,29.98,NE,47,3.0,15.0,70,0.00,RMK !SN!,RMK !SN!,0.00,WUHU216DAVISVP2,2013-01-20 12:50:00,
2013-01-20 07:55:00,27.5,19.0,29.99,WSW,239,2.0,14.0,70,0.00,RMK !SN!,RMK !SN!,0.00,WUHU216DAVISVP2,2013-01-20 12:55:00,
2013-01-20 08:00:00,27.4,18.9,29.99,South,170,2.0,14.0,70,0.00,RMK !SN!,RMK !SN!,0.00,WUHU216DAVISVP2,2013-01-20 13:00:00,
2013-01-20 08:05:00,27.4,18.9,30.00,SE,129,5.0,13.0,70,0.00,RMK !SN!,RMK !SN!,0.00,WUHU216DAVISVP2,2013-01-20 13:05:00,
2013-01-20 08:10:00,27.1,18.9,30.00,South,180,4.0,13.0,71,0.00,RMK !SN!,RMK !SN!,0.00,WUHU216DAVISVP2,2013-01-20 13:10:00,
2013-01-20 08:15:00,26.9,19.1,30.01,NW,326,6.0,13.0,72,0.00,RMK !SN!,RMK !SN!,0.00,WUHU216DAVISVP2,2013-01-20 13:15:00,
2013-01-20 08:20:00,26.7,19.2,30.01,NNW,340,4.0,13.0,73,0.00,RMK !SN!,RMK !SN!,0.00,WUHU216DAVISVP2,2013-01-20 13:20:00,
2013-01-20 08:25:00,26.6,18.8,30.01,SSW,200,1.0,13.0,72,0.00,RMK !SN!,RMK !SN!,0.00,WUHU216DAVISVP2,2013-01-20 13:25:00,
2013-01-20 08:30:00,26.5,18.4,30.02,North,352,3.0,10.0,71,0.00,RMK !SN!,RMK !SN!,0.00,WUHU216DAVISVP2,2013-01-20 13:30:00,
2013-01-20 08:35:00,26.3,17.9,30.03,WNW,295,2.0,10.0,70,0.00,RMK !SN!,RMK !SN!,0.00,WUHU216DAVISVP2,2013-01-20 13:35:00,
2013-01-20 08:40:00,26.1,17.4,30.03,WNW,301,4.0,10.0,69,0.00,RMK !SN!,RMK !SN!,0.00,WUHU216DAVISVP2,2013-01-20 13:40:00,
2013-01-20 08:45:00,26.1,17.0,30.03,ESE,111,3.0,10.0,68,0.00,RMK !SN!,RMK !SN!,0.00,WUHU216DAVISVP2,2013-01-20 13:45:00,
2013-01-20 08:50:00,25.9,16.8,30.04,North,350,7.0,12.0,68,0.00,RMK !SN!,RMK !SN!,0.00,WUHU216DAVISVP2,2013-01-20 13:50:00,
2013-01-20 08:55:00,25.7,16.3,30.05,North,1,2.0,12.0,67,0.00,RMK !SN!,RMK !SN!,0.00,WUHU216DAVISVP2,2013-01-20 13:55:00,
2013-01-20 09:00:00,25.6,16.2,30.05,NNW,340,4.0,12.0,67,0.00,RMK !SN!,RMK !SN!,0.00,WUHU216DAVISVP2,2013-01-20 14:00:00,
2013-01-20 09:05:00,25.4,15.7,30.05,SE,144,2.0,12.0,66,0.00,RMK !SN!,RMK !SN!,0.00,WUHU216DAVISVP2,2013-01-20 14:05:00,
2013-01-20 09:10:00,25.3,15.6,30.06,West,273,2.0,13.0,66,0.00,RMK !SN!,RMK !SN!,0.00,WUHU216DAVISVP2,2013-01-20 14:10:00,
2013-01-20 09:15:00,25.2,15.8,30.06,NNE,22,4.0,13.0,67,0.00,RMK !SN!,RMK !SN!,0.00,WUHU216DAVISVP2,2013-01-20 14:15:00,
2013-01-20 09:20:00,24.9,15.5,30.06,South,174,2.0,13.0,67,0.00,RMK !SN!,RMK !SN!,0.00,WUHU216DAVISVP2,2013-01-20 14:20:00,
2013-01-20 09:25:00,24.8,15.5,30.07,ENE,64,3.0,10.0,67,0.00,RMK !SN!,RMK !SN!,0.00,WUHU216DAVISVP2,2013-01-20 14:25:00,
2013-01-20 09:30:00,24.6,15.6,30.07,NNE,18,0.0,10.0,68,0.00,RMK !SN!,RMK !SN!,0.00,WUHU216DAVISVP2,2013-01-20 14:30:00,
2013-01-20 09:35:00,24.2,14.9,30.07,NNE,18,8.0,11.0,67,0.00,RMK !SN!,RMK !SN!,0.00,WUHU216DAVISVP2,2013-01-20 14:35:00,
2013-01-20 09:40:00,24.0,15.0,30.08,WNW,287,1.0,19.0,68,0.00,RMK !SN!,RMK !SN!,0.00,WUHU216DAVISVP2,2013-01-20 14:40:00,
2013-01-20 09:45:00,23.9,14.9,30.09,WSW,243,3.0,20.0,68,0.00,RMK !SN!,RMK !SN!,0.00,WUHU216DAVISVP2,2013-01-20 14:45:00,
2013-01-20 09:50:00,23.8,15.2,30.09,SSE,149,0.0,20.0,69,0.00,RMK !SN!,RMK !SN!,0.00,WUHU216DAVISVP2,2013-01-20 14:50:00,
2013-01-20 09:55:00,23.6,15.0,30.10,NNW,328,5.0,20.0,69,0.00,RMK !SN!,RMK !SN!,0.00,WUHU216DAVISVP2,2013-01-20 14:55:00,
2013-01-20 10:00:00,23.6,14.3,30.09,NNW,337,4.0,10.0,67,0.00,RMK !SN!,RMK !SN!,0.00,WUHU216DAVISVP2,2013-01-20 15:00:00,
2013-01-20 10:05:00,23.5,14.1,30.10,SSW,207,3.0,10.0,67,0.00,RMK !SN!,RMK !SN!,0.00,WUHU216DAVISVP2,2013-01-20 15:05:00,
2013-01-20 10:10:00,23.5,13.1,30.10,ENE,73,2.0,10.0,64,0.00,RMK !SN!,RMK !SN!,0.00,WUHU216DAVISVP2,2013-01-20 15:10:00,
2013-01-20 10:15:00,23.6,13.2,30.11,NNE,33,5.0,10.0,64,0.00,RMK !SN!,RMK !SN!,0.00,WUHU216DAVISVP2,2013-01-20 15:15:00,
2013-01-20 10:20:00,23.6,13.3,30.11,NNW,332,7.0,11.0,64,0.00,RMK !SN!,RMK !SN!,0.00,WUHU216DAVISVP2,2013-01-20 15:20:00,
2013-01-20 10:25:00,23.5,14.2,30.12,SW,233,4.0,11.0,67,0.00,RMK !SN!,RMK !SN!,0.00,WUHU216DAVISVP2,2013-01-20 15:25:00,
2013-01-20 10:30:00,23.3,14.4,30.12,North,349,3.0,12.0,68,0.00,RMK !SN!,RMK !SN!,0.00,WUHU216DAVISVP2,2013-01-20 15:30:00,
2013-01-20 10:35:00,23.1,14.5,30.13,WSW,254,0.0,12.0,69,0.00,RMK !SN!,RMK !SN!,0.00,WUHU216DAVISVP2,2013-01-20 15:35:00,
2013-01-20 10:40:00,23.0,13.7,30.14,NW,304,4.0,12.0,67,0.00,RMK !SN!,RMK !SN!,0.00,WUHU216DAVISVP2,2013-01-20 15:40:00,
2013-01-20 10:45:00,23.0,13.0,30.14,WNW,293,4.0,12.0,65,0.00,RMK !SN!,RMK !SN!,0.00,WUHU216DAVISVP2,2013-01-20 15:45:00,
2013-01-20 10:50:00,23.0,12.0,30.14,East,101,4.0,10.0,62,0.00,RMK !SN!,RMK !SN!,0.00,WUHU216DAVISVP2,2013-01-20 15:50:00,
2013-01-20 10:55:00,22.9,12.2,30.14,SW,226,0.0,10.0,63,0.00,RMK !SN!,RMK !SN!,0.00,WUHU216DAVISVP2,2013-01-20 15:55:00,
2013-01-20 11:00:00,22.9,12.5,30.15,SSE,158,4.0,11.0,64,0.00,RMK !SN!,RMK !SN!,0.00,WUHU216DAVISVP2,2013-01-20 16:00:00,
2013-01-20 11:05:00,22.7,12.0,30.15,SSE,162,5.0,11.0,63,0.00,RMK !SN!,RMK !SN!,0.00,WUHU216DAVISVP2,2013-01-20 16:05:00,
2013-01-20 11:10:00,22.5,11.5,30.15,WSW,248,1.0,13.0,62,0.00,RMK !SN!,RMK !SN!,0.00,WUHU216DAVISVP2,2013-01-20 16:10:00,
2013-01-20 11:15:00,22.8,11.8,30.15,WSW,255,2.0,13.0,62,0.00,RMK !SN!,RMK !SN!,0.00,WUHU216DAVISVP2,2013-01-20 16:15:00,
2013-01-20 11:20:00,22.9,11.9,30.15,SW,233,3.0,11.0,62,0.00,RMK !SN!,RMK !SN!,0.00,WUHU216DAVISVP2,2013-01-20 16:20:00,
2013-01-20 11:25:00,22.7,12.0,30.16,East,92,1.0,12.0,63,0.00,RMK !SN!,RMK !SN!,0.00,WUHU216DAVISVP2,2013-01-20 16:25:00,
2013-01-20 11:30:00,22.5,12.2,30.15,North,357,1.0,12.0,64,0.00,RMK !SN!,RMK !SN!,0.00,WUHU216DAVISVP2,2013-01-20 16:30:00,
2013-01-20 11:35:00,22.5,12.1,30.15,SW,214,2.0,12.0,64,0.00,RMK !SN!,RMK !SN!,0.00,WUHU216DAVISVP2,2013-01-20 16:35:00,
2013-01-20 11:40:00,22.4,12.1,30.15,WNW,290,0.0,12.0,64,0.00,RMK !SN!,RMK !SN!,0.00,WUHU216DAVISVP2,2013-01-20 16:40:00,
2013-01-20 11:45:00,22.3,12.0,30.15,NNW,339,1.0,12.0,64,0.00,RMK !SN!,RMK !SN!,0.00,WUHU216DAVISVP2,2013-01-20 16:45:00,
2013-01-20 11:50:00,22.2,12.3,30.15,WSW,255,2.0,12.0,65,0.00,RMK !SN!,RMK !SN!,0.00,WUHU216DAVISVP2,2013-01-20 16:50:00,
2013-01-20 11:55:00,22.2,11.1,30.15,West,259,0.0,7.0,62,0.00,RMK !SN!,RMK !SN!,0.00,WUHU216DAVISVP2,2013-01-20 16:55:00,
2013-01-20 12:00:00,22.2,11.1,30.15,ENE,71,2.0,8.0,62,0.00,RMK !SN!,RMK !SN!,0.00,WUHU216DAVISVP2,2013-01-20 17:00:00,
2013-01-20 12:05:00,22.1,11.4,30.15,NW,322,2.0,9.0,63,0.00,RMK !SN!,RMK !SN!,0.00,WUHU216DAVISVP2,2013-01-20 17:05:00,
2013-01-20 12:10:00,22.1,12.1,30.15,North,349,3.0,9.0,65,0.00,RMK !SN!,RMK !SN!,0.00,WUHU216DAVISVP2,2013-01-20 17:10:00,
2013-01-20 12:15:00,22.2,11.9,30.16,South,182,2.0,9.0,64,0.00,RMK !SN!,RMK !SN!,0.00,WUHU216DAVISVP2,2013-01-20 17:15:00,
2013-01-20 12:20:00,21.9,11.9,30.15,SSE,155,1.0,9.0,65,0.00,RMK !SN!,RMK !SN!,0.00,WUHU216DAVISVP2,2013-01-20 17:20:00,
2013-01-20 12:25:00,21.9,12.0,30.15,East,81,0.0,9.0,65,0.00,RMK !SN!,RMK !SN!,0.00,WUHU216DAVISVP2,2013-01-20 17:25:00,
2013-01-20 12:30:00,22.0,12.1,30.15,SE,128,0.0,9.0,65,0.00,RMK !SN!,RMK !SN!,0.00,WUHU216DAVISVP2,2013-01-20 17:30:00,
2013-01-20 12:35:00,21.8,12.2,30.16,South,170,1.0,8.0,66,0.00,RMK !SN!,RMK !SN!,0.00,WUHU216DAVISVP2,2013-01-20 17:35:00,
2013-01-20 12:40:00,21.8,12.2,30.16,WNW,295,1.0,14.0,66,0.00,RMK !SN!,RMK !SN!,0.00,WUHU216DAVISVP2,2013-01-20 17:40:00,
2013-01-20 12:45:00,21.8,11.5,30.16,WSW,253,0.0,14.0,64,0.00,RMK !SN!,RMK !SN!,0.00,WUHU216DAVISVP2,2013-01-20 17:45:00,
2013-01-20 12:50:00,21.9,11.3,30.16,NW,312,0.0,12.0,63,0.00,RMK !SN!,RMK !SN!,0.00,WUHU216DAVISVP2,2013-01-20 17:50:00,
2013-01-20 12:55:00,22.3,11.7,30.16,SW,236,6.0,12.0,63,0.00,RMK !SN!,RMK !SN!,0.00,WUHU216DAVISVP2,2013-01-20 17:55:00,
2013-01-20 13:00:00,22.2,10.5,30.17,South,191,1.0,8.0,60,0.00,RMK !SN!,RMK !SN!,0.00,WUHU216DAVISVP2,2013-01-20 18:00:00,
2013-01-20 13:05:00,22.1,10.3,30.16,SW,214,2.0,8.0,60,0.00,RMK !SN!,RMK !SN!,0.00,WUHU216DAVISVP2,2013-01-20 18:05:00,
2013-01-20 13:10:00,22.0,9.8,30.16,NNW,339,1.0,8.0,59,0.00,RMK !SN!,RMK !SN!,0.00,WUHU216DAVISVP2,2013-01-20 18:10:00,
2013-01-20 13:15:00,22.1,10.7,30.16,SW,231,0.0,8.0,61,0.00,RMK !SN!,RMK !SN!,0.00,WUHU216DAVISVP2,2013-01-20 18:15:00,
2013-01-20 13:20:00,22.1,11.1,30.16,NNW,345,2.0,8.0,62,0.00,RMK !SN!,RMK !SN!,0.00,WUHU216DAVISVP2,2013-01-20 18:20:00,
2013-01-20 13:25:00,22.2,11.6,30.16,SSE,156,2.0,7.0,63,0.00,RMK !SN!,RMK !SN!,0.00,WUHU216DAVISVP2,2013-01-20 18:25:00,
2013-01-20 13:30:00,22.5,11.1,30.16,North,356,6.0,6.0,61,0.00,RMK !SN!,RMK !SN!,0.00,WUHU216DAVISVP2,2013-01-20 18:30:00,
2013-01-20 13:35:00,22.5,11.5,30.16,East,92,0.0,9.0,62,0.00,RMK !SN!,RMK !SN!,0.00,WUHU216DAVISVP2,2013-01-20 18:35:00,
2013-01-20 13:40:00,22.4,11.4,30.16,SW,235,0.0,9.0,62,0.00,RMK !SN!,RMK !SN!,0.00,WUHU216DAVISVP2,2013-01-20 18:40:00,
2013-01-20 13:45:00,22.3,10.9,30.16,NNE,32,1.0,9.0,61,0.00,RMK !SN!,RMK !SN!,0.00,WUHU216DAVISVP2,2013-01-20 18:45:00,
2013-01-20 13:50:00,22.5,11.1,30.16,NE,34,0.0,9.0,61,0.00,RMK !SN!,RMK !SN!,0.00,WUHU216DAVISVP2,2013-01-20 18:50:00,
2013-01-20 13:55:00,22.9,11.5,30.16,NNE,32,2.0,7.0,61,0.00,RMK !SN!,RMK !SN!,0.00,WUHU216DAVISVP2,2013-01-20 18:55:00,
2013-01-20 14:00:00,22.6,11.2,30.16,NW,305,1.0,8.0,61,0.00,RMK !SN!,RMK !SN!,0.00,WUHU216DAVISVP2,2013-01-20 19:00:00,
2013-01-20 14:05:00,22.6,11.6,30.16,WSW,249,0.0,8.0,62,0.00,RMK !SN!,RMK !SN!,0.00,WUHU216DAVISVP2,2013-01-20 19:05:00,
2013-01-20 14:10:00,22.6,11.6,30.16,NW,317,0.0,8.0,62,0.00,RMK !SN!,RMK !SN!,0.00,WUHU216DAVISVP2,2013-01-20 19:10:00,
2013-01-20 14:15:00,22.6,12.3,30.16,East,90,0.0,7.0,64,0.00,RMK !SN!,RMK !SN!,0.00,WUHU216DAVISVP2,2013-01-20 19:15:00,
2013-01-20 14:20:00,22.5,12.1,30.15,NNW,330,2.0,6.0,64,0.00,RMK !SN!,RMK !SN!,0.00,WUHU216DAVISVP2,2013-01-20 19:20:00,
2013-01-20 14:25:00,22.6,12.3,30.15,North,354,2.0,6.0,64,0.00,RMK !SN!,RMK !SN!,0.00,WUHU216DAVISVP2,2013-01-20 19:25:00,
2013-01-20 14:30:00,22.5,12.6,30.15,WNW,295,1.0,6.0,65,0.00,RMK !SN!,RMK !SN!,0.00,WUHU216DAVISVP2,2013-01-20 19:30:00,
2013-01-20 14:35:00,22.5,12.5,30.15,West,276,4.0,8.0,65,0.00,RMK !SN!,RMK !SN!,0.00,WUHU216DAVISVP2,2013-01-20 19:35:00,
2013-01-20 14:40:00,22.7,12.8,30.15,NNW,333,1.0,8.0,65,0.00,RMK !SN!,RMK !SN!,0.00,WUHU216DAVISVP2,2013-01-20 19:40:00,
2013-01-20 14:45:00,22.9,12.9,30.15,SSW,198,1.0,8.0,65,0.00,RMK !SN!,RMK !SN!,0.00,WUHU216DAVISVP2,2013-01-20 19:45:00,
2013-01-20 14:50:00,22.9,12.9,30.15,NW,309,3.0,8.0,65,0.00,RMK !SN!,RMK !SN!,0.00,WUHU216DAVISVP2,2013-01-20 19:50:00,
2013-01-20 14:55:00,23.1,12.7,30.15,ESE,117,1.0,4.0,64,0.00,RMK !SN!,RMK !SN!,0.00,WUHU216DAVISVP2,2013-01-20 19:55:00,
2013-01-20 15:00:00,23.2,12.1,30.15,SSW,208,0.0,4.0,62,0.00,RMK !SN!,RMK !SN!,0.00,WUHU216DAVISVP2,2013-01-20 20:00:00,
2013-01-20 15:05:00,23.5,12.4,30.15,SSE,165,1.0,4.0,62,0.00,RMK !SN!,RMK !SN!,0.00,WUHU216DAVISVP2,2013-01-20 20:05:00,
2013-01-20 15:10:00,23.5,12.4,30.15,NNE,15,1.0,5.0,62,0.00,RMK !SN!,RMK !SN!,0.00,WUHU216DAVISVP2,2013-01-20 20:10:00,
2013-01-20 15:15:00,23.8,12.7,30.16,SW,219,0.0,5.0,62,0.00,RMK !SN!,RMK !SN!,0.00,WUHU216DAVISVP2,2013-01-20 20:15:00,
2013-01-20 15:20:00,23.8,12.3,30.16,NNW,330,0.0,7.0,61,0.00,RMK !SN!,RMK !SN!,0.00,WUHU216DAVISVP2,2013-01-20 20:20:00,
2013-01-20 15:25:00,23.8,12.0,30.16,WSW,249,2.0,7.0,60,0.00,RMK !SN!,RMK !SN!,0.00,WUHU216DAVISVP2,2013-01-20 20:25:00,
2013-01-20 15:30:00,24.0,12.2,30.16,SW,226,0.0,7.0,60,0.00,RMK !SN!,RMK !SN!,0.00,WUHU216DAVISVP2,2013-01-20 20:30:00,
2013-01-20 15:35:00,24.1,12.2,30.16,NNW,333,0.0,7.0,60,0.00,RMK !SN!,RMK !SN!,0.00,WUHU216DAVISVP2,2013-01-20 20:35:00,
2013-01-20 15:40:00,24.0,12.1,30.17,South,188,5.0,6.0,60,0.00,RMK !SN!,RMK !SN!,0.00,WUHU216DAVISVP2,2013-01-20 20:40:00,
2013-01-20 15:45:00,23.9,12.4,30.17,NE,51,0.0,6.0,61,0.00,RMK !SN!,RMK !SN!,0.00,WUHU216DAVISVP2,2013-01-20 20:45:00,
2013-01-20 15:50:00,23.8,12.3,30.17,SW,215,0.0,6.0,61,0.00,RMK !SN!,RMK !SN!,0.00,WUHU216DAVISVP2,2013-01-20 20:50:00,
2013-01-20 15:55:00,23.8,12.0,30.17,WNW,295,0.0,6.0,60,0.00,RMK !SN!,RMK !SN!,0.00,WUHU216DAVISVP2,2013-01-20 20:55:00,
2013-01-20 16:00:00,23.8,12.0,30.17,West,281,1.0,6.0,60,0.00,RMK !SN!,RMK !SN!,0.00,WUHU216DAVISVP2,2013-01-20 21:00:00,
2013-01-20 16:05:00,23.6,12.2,30.17,NNE,12,2.0,6.0,61,0.00,RMK !SN!,RMK !SN!,0.00,WUHU216DAVISVP2,2013-01-20 21:05:00,
2013-01-20 16:10:00,23.5,12.4,30.17,SE,143,2.0,5.0,62,0.00,RMK !SN!,RMK !SN!,0.00,WUHU216DAVISVP2,2013-01-20 21:10:00,
2013-01-20 16:15:00,23.5,12.8,30.17,NE,45,0.0,5.0,63,0.00,RMK !SN!,RMK !SN!,0.00,WUHU216DAVISVP2,2013-01-20 21:15:00,
2013-01-20 16:20:00,23.5,12.8,30.17,NNW,340,1.0,5.0,63,0.00,RMK !SN!,RMK !SN!,0.00,WUHU216DAVISVP2,2013-01-20 21:20:00,
2013-01-20 16:25:00,23.6,12.9,30.17,NE,53,1.0,6.0,63,0.00,RMK !SN!,RMK !SN!,0.00,WUHU216DAVISVP2,2013-01-20 21:25:00,
2013-01-20 16:30:00,23.4,12.7,30.18,NNE,16,1.0,7.0,63,0.00,RMK !SN!,RMK !SN!,0.00,WUHU216DAVISVP2,2013-01-20 21:30:00,
2013-01-20 16:35:00,23.3,12.6,30.18,ESE,118,1.0,7.0,63,0.00,RMK !SN!,RMK !SN!,0.00,WUHU216DAVISVP2,2013-01-20 21:35:00,
2013-01-20 16:40:00,23.3,12.6,30.18,SE,132,2.0,7.0,63,0.00,RMK !SN!,RMK !SN!,0.00,WUHU216DAVISVP2,2013-01-20 21:40:00,
2013-01-20 16:45:00,23.2,12.9,30.18,WSW,248,1.0,7.0,64,0.00,RMK !SN!,RMK !SN!,0.00,WUHU216DAVISVP2,2013-01-20 21:45:00,
2013-01-20 16:50:00,23.1,12.8,30.18,West,260,2.0,6.0,64,0.00,RMK !SN!,RMK !SN!,0.00,WUHU216DAVISVP2,2013-01-20 21:50:00,
2013-01-20 16:55:00,23.1,12.8,30.18,SSE,152,1.0,4.0,64,0.00,RMK !SN!,RMK !SN!,0.00,WUHU216DAVISVP2,2013-01-20 21:55:00,
2013-01-20 17:00:00,23.1,12.8,30.18,SSW,205,1.0,4.0,64,0.00,RMK !SN!,RMK !SN!,0.00,WUHU216DAVISVP2,2013-01-20 22:00:00,
2013-01-20 17:05:00,23.0,12.7,30.19,NNE,16,0.0,4.0,64,0.00,RMK !SN!,RMK !SN!,0.00,WUHU216DAVISVP2,2013-01-20 22:05:00,
2013-01-20 17:10:00,23.0,12.3,30.19,SE,143,0.0,4.0,63,0.00,RMK !SN!,RMK !SN!,0.00,WUHU216DAVISVP2,2013-01-20 22:10:00,
2013-01-20 17:15:00,22.9,12.2,30.19,South,186,0.0,4.0,63,0.00,RMK !SN!,RMK !SN!,0.00,WUHU216DAVISVP2,2013-01-20 22:15:00,
2013-01-20 17:20:00,22.9,12.6,30.19,NNW,337,0.0,4.0,64,0.00,RMK !SN!,RMK !SN!,0.00,WUHU216DAVISVP2,2013-01-20 22:20:00,
2013-01-20 17:25:00,22.9,12.5,30.19,NNW,329,0.0,4.0,64,0.00,RMK !SN!,RMK !SN!,0.00,WUHU216DAVISVP2,2013-01-20 22:25:00,
2013-01-20 17:30:00,23.0,12.3,30.19,SSW,210,0.0,9.0,63,0.00,RMK !SN!,RMK !SN!,0.00,WUHU216DAVISVP2,2013-01-20 22:30:00,
2013-01-20 17:35:00,23.1,12.4,30.18,SSE,159,0.0,9.0,63,0.00,RMK !SN!,RMK !SN!,0.00,WUHU216DAVISVP2,2013-01-20 22:35:00,
2013-01-20 17:40:00,23.2,12.5,30.18,South,187,1.0,9.0,63,0.00,RMK !SN!,RMK !SN!,0.00,WUHU216DAVISVP2,2013-01-20 22:40:00,
2013-01-20 17:45:00,23.2,12.5,30.18,ESE,114,1.0,9.0,63,0.00,RMK !SN!,RMK !SN!,0.00,WUHU216DAVISVP2,2013-01-20 22:45:00,
2013-01-20 17:50:00,23.2,12.5,30.18,West,274,3.0,7.0,63,0.00,RMK !SN!,RMK !SN!,0.00,WUHU216DAVISVP2,2013-01-20 22:50:00,
2013-01-20 17:55:00,23.1,12.4,30.19,South,170,0.0,7.0,63,0.00,RMK !SN!,RMK !SN!,0.00,WUHU216DAVISVP2,2013-01-20 22:55:00,
2013-01-20 18:00:00,23.2,12.9,30.19,North,4,2.0,7.0,64,0.00,RMK !SN!,RMK !SN!,0.00,WUHU216DAVISVP2,2013-01-20 23:00:00,
2013-01-20 18:05:00,23.3,12.6,30.19,North,5,2.0,6.0,63,0.00,RMK !SN!,RMK !SN!,0.00,WUHU216DAVISVP2,2013-01-20 23:05:00,
2013-01-20 18:10:00,23.3,12.2,30.19,NE,54,4.0,6.0,62,0.00,RMK !SN!,RMK !SN!,0.00,WUHU216DAVISVP2,2013-01-20 23:10:00,
2013-01-20 18:15:00,23.2,11.8,30.20,SE,135,0.0,7.0,61,0.00,RMK !SN!,RMK !SN!,0.00,WUHU216DAVISVP2,2013-01-20 23:15:00,
2013-01-20 18:20:00,23.3,11.9,30.20,SW,236,0.0,7.0,61,0.00,RMK !SN!,RMK !SN!,0.00,WUHU216DAVISVP2,2013-01-20 23:20:00,
2013-01-20 18:25:00,23.4,11.9,30.20,SSW,194,1.0,7.0,61,0.00,RMK !SN!,RMK !SN!,0.00,WUHU216DAVISVP2,2013-01-20 23:25:00,
2013-01-20 18:30:00,23.3,11.8,30.20,SE,128,0.0,6.0,61,0.00,RMK !SN!,RMK !SN!,0.00,WUHU216DAVISVP2,2013-01-20 23:30:00,
2013-01-20 18:35:00,23.2,12.1,30.20,SSE,149,0.0,6.0,62,0.00,RMK !SN!,RMK !SN!,0.00,WUHU216DAVISVP2,2013-01-20 23:35:00,
2013-01-20 18:40:00,23.2,12.1,30.20,SSE,162,0.0,5.0,62,0.00,RMK !SN!,RMK !SN!,0.00,WUHU216DAVISVP2,2013-01-20 23:40:00,
2013-01-20 18:45:00,23.2,11.7,30.20,NNW,341,0.0,5.0,61,0.00,RMK !SN!,RMK !SN!,0.00,WUHU216DAVISVP2,2013-01-20 23:45:00,
2013-01-20 18:50:00,23.2,11.7,30.19,SSW,204,0.0,7.0,61,0.00,RMK !SN!,RMK !SN!,0.00,WUHU216DAVISVP2,2013-01-20 23:50:00,
2013-01-20 18:55:00,23.2,12.1,30.20,WSW,246,0.0,7.0,62,0.00,RMK !SN!,RMK !SN!,0.00,WUHU216DAVISVP2,2013-01-20 23:55:00,
2013-01-20 19:00:00,23.2,12.1,30.20,WNW,301,1.0,6.0,62,0.00,RMK !SN!,RMK !SN!,0.00,WUHU216DAVISVP2,2013-01-21 00:00:00,
2013-01-20 19:05:00,23.1,12.1,30.20,SSW,205,2.0,6.0,62,0.00,RMK !SN!,RMK !SN!,0.00,WUHU216DAVISVP2,2013-01-21 00:05:00,
2013-01-20 19:10:00,23.1,12.0,30.20,North,354,0.0,5.0,62,0.00,RMK !SN!,RMK !SN!,0.00,WUHU216DAVISVP2,2013-01-21 00:10:00,
2013-01-20 19:15:00,23.1,12.1,30.20,SSE,163,3.0,6.0,62,0.00,RMK !SN!,RMK !SN!,0.00,WUHU216DAVISVP2,2013-01-21 00:15:00,
2013-01-20 19:20:00,23.0,12.3,30.20,NNW,330,1.0,6.0,63,0.00,RMK !SN!,RMK !SN!,0.00,WUHU216DAVISVP2,2013-01-21 00:20:00,
2013-01-20 19:25:00,23.0,12.3,30.20,WSW,248,0.0,6.0,63,0.00,RMK !SN!,RMK !SN!,0.00,WUHU216DAVISVP2,2013-01-21 00:25:00,
2013-01-20 19:30:00,22.9,12.5,30.20,SSE,158,1.0,6.0,64,0.00,RMK !SN!,RMK !SN!,0.00,WUHU216DAVISVP2,2013-01-21 00:30:00,
2013-01-20 19:35:00,22.9,12.6,30.20,SE,134,1.0,6.0,64,0.00,RMK !SN!,RMK !SN!,0.00,WUHU216DAVISVP2,2013-01-21 00:35:00,
2013-01-20 19:40:00,22.8,12.1,30.20,SSE,153,0.0,6.0,63,0.00,RMK !SN!,RMK !SN!,0.00,WUHU216DAVISVP2,2013-01-21 00:40:00,
2013-01-20 19:45:00,22.8,12.1,30.20,SSE,167,3.0,6.0,63,0.00,RMK !SN!,RMK !SN!,0.00,WUHU216DAVISVP2,2013-01-21 00:45:00,
2013-01-20 19:50:00,22.7,12.4,30.20,SSE,156,0.0,6.0,64,0.00,RMK !SN!,RMK !SN!,0.00,WUHU216DAVISVP2,2013-01-21 00:50:00,
2013-01-20 19:55:00,22.7,12.4,30.20,WSW,250,0.0,5.0,64,0.00,RMK !SN!,RMK !SN!,0.00,WUHU216DAVISVP2,2013-01-21 00:55:00,
2013-01-20 20:00:00,22.7,12.4,30.20,SE,126,2.0,5.0,64,0.00,RMK !SN!,RMK !SN!,0.00,WUHU216DAVISVP2,2013-01-21 01:00:00,
2013-01-20 20:05:00,22.7,12.4,30.20,WSW,238,0.0,9.0,64,0.00,RMK !SN!,RMK !SN!,0.00,WUHU216DAVISVP2,2013-01-21 01:05:00,
2013-01-20 20:10:00,22.7,12.3,30.20,South,184,0.0,9.0,64,0.00,RMK !SN!,RMK !SN!,0.00,WUHU216DAVISVP2,2013-01-21 01:10:00,
2013-01-20 20:15:00,22.7,12.3,30.20,NNW,328,1.0,9.0,64,0.00,RMK !SN!,RMK !SN!,0.00,WUHU216DAVISVP2,2013-01-21 01:15:00,
2013-01-20 20:20:00,22.7,12.4,30.20,SSE,155,1.0,9.0,64,0.00,RMK !SN!,RMK !SN!,0.00,WUHU216DAVISVP2,2013-01-21 01:20:00,
2013-01-20 20:25:00,22.8,12.1,30.20,North,356,1.0,4.0,63,0.00,RMK !SN!,RMK !SN!,0.00,WUHU216DAVISVP2,2013-01-21 01:25:00,
2013-01-20 20:30:00,22.8,12.5,30.20,SW,236,0.0,4.0,64,0.00,RMK !SN!,RMK !SN!,0.00,WUHU216DAVISVP2,2013-01-21 01:30:00,
2013-01-20 20:35:00,22.9,12.6,30.20,NE,47,0.0,6.0,64,0.00,RMK !SN!,RMK !SN!,0.00,WUHU216DAVISVP2,2013-01-21 01:35:00,
2013-01-20 20:40:00,22.8,12.1,30.20,SW,214,1.0,6.0,63,0.00,RMK !SN!,RMK !SN!,0.00,WUHU216DAVISVP2,2013-01-21 01:40:00,
2013-01-20 20:46:00,22.8,11.4,30.20,WSW,245,0.0,6.0,61,0.00,RMK !SN!,RMK !SN!,0.00,WUHU216DAVISVP2,2013-01-21 01:46:00,
2013-01-20 20:51:00,22.7,11.7,30.20,South,173,0.0,6.0,62,0.00,RMK !SN!,RMK !SN!,0.00,WUHU216DAVISVP2,2013-01-21 01:51:00,
2013-01-20 20:56:00,22.7,11.7,30.21,NNE,22,0.0,6.0,62,0.00,RMK !SN!,RMK !SN!,0.00,WUHU216DAVISVP2,2013-01-21 01:56:00,
2013-01-20 21:01:00,22.7,11.6,30.20,North,1,0.0,6.0,62,0.00,RMK !SN!,RMK !SN!,0.00,WUHU216DAVISVP2,2013-01-21 02:01:00,
2013-01-20 21:06:00,22.7,12.0,30.20,SSW,197,0.0,6.0,63,0.00,RMK !SN!,RMK !SN!,0.00,WUHU216DAVISVP2,2013-01-21 02:06:00,
2013-01-20 21:11:00,22.6,11.5,30.20,SSE,165,1.0,5.0,62,0.00,RMK !SN!,RMK !SN!,0.00,WUHU216DAVISVP2,2013-01-21 02:11:00,
2013-01-20 21:16:00,22.6,11.5,30.20,SW,233,0.0,5.0,62,0.00,RMK !SN!,RMK !SN!,0.00,WUHU216DAVISVP2,2013-01-21 02:16:00,
2013-01-20 21:21:00,22.6,11.9,30.20,North,10,3.0,4.0,63,0.00,RMK !SN!,RMK !SN!,0.00,WUHU216DAVISVP2,2013-01-21 02:21:00,
2013-01-20 21:26:00,22.5,12.2,30.20,NNW,328,0.0,4.0,64,0.00,RMK !SN!,RMK !SN!,0.00,WUHU216DAVISVP2,2013-01-21 02:26:00,
2013-01-20 21:31:00,22.4,12.5,30.20,SE,143,1.0,6.0,65,0.00,RMK !SN!,RMK !SN!,0.00,WUHU216DAVISVP2,2013-01-21 02:31:00,
2013-01-20 21:36:00,22.3,12.4,30.20,NNW,336,0.0,7.0,65,0.00,RMK !SN!,RMK !SN!,0.00,WUHU216DAVISVP2,2013-01-21 02:36:00,
2013-01-20 21:41:00,22.3,12.4,30.20,West,263,0.0,7.0,65,0.00,RMK !SN!,RMK !SN!,0.00,WUHU216DAVISVP2,2013-01-21 02:41:00,
2013-01-20 21:46:00,22.1,12.1,30.20,SW,222,0.0,7.0,65,0.00,RMK !SN!,RMK !SN!,0.00,WUHU216DAVISVP2,2013-01-21 02:46:00,
2013-01-20 21:51:00,22.0,12.1,30.20,SSW,198,0.0,6.0,65,0.00,RMK !SN!,RMK !SN!,0.00,WUHU216DAVISVP2,2013-01-21 02:51:00,
2013-01-20 21:56:00,22.1,12.1,30.20,WNW,288,1.0,5.0,65,0.00,RMK !SN!,RMK !SN!,0.00,WUHU216DAVISVP2,2013-01-21 02:56:00,
2013-01-20 22:01:00,22.0,11.7,30.20,SSW,203,3.0,7.0,64,0.00,RMK !SN!,RMK !SN!,0.00,WUHU216DAVISVP2,2013-01-21 03:01:00,
2013-01-20 22:06:00,22.0,11.7,30.20,WSW,239,1.0,7.0,64,0.00,RMK !SN!,RMK !SN!,0.00,WUHU216DAVISVP2,2013-01-21 03:06:00,
2013-01-20 22:11:00,21.8,11.5,30.20,SSE,159,0.0,7.0,64,0.00,RMK !SN!,RMK !SN!,0.00,WUHU216DAVISVP2,2013-01-21 03:11:00,
2013-01-20 22:16:00,21.8,11.2,30.20,West,261,1.0,7.0,63,0.00,RMK !SN!,RMK !SN!,0.00,WUHU216DAVISVP2,2013-01-21 03:16:00,
2013-01-20 22:21:00,21.6,11.0,30.20,South,169,7.0,8.0,63,0.00,RMK !SN!,RMK !SN!,0.00,WUHU216DAVISVP2,2013-01-21 03:21:00,
2013-01-20 22:26:00,21.5,11.3,30.20,South,188,0.0,10.0,64,0.00,RMK !SN!,RMK !SN!,0.00,WUHU216DAVISVP2,2013-01-21 03:26:00,
2013-01-20 22:31:00,21.5,11.2,30.20,West,276,0.0,10.0,64,0.00,RMK !SN!,RMK !SN!,0.00,WUHU216DAVISVP2,2013-01-21 03:31:00,
2013-01-20 22:36:00,21.5,10.9,30.19,NNE,33,2.0,10.0,63,0.00,RMK !SN!,RMK !SN!,0.00,WUHU216DAVISVP2,2013-01-21 03:36:00,
2013-01-20 22:41:00,21.5,10.8,30.20,WNW,298,1.0,10.0,63,0.00,RMK !SN!,RMK !SN!,0.00,WUHU216DAVISVP2,2013-01-21 03:41:00,
2013-01-20 22:46:00,21.5,10.9,30.20,NNE,13,0.0,6.0,63,0.00,RMK !SN!,RMK !SN!,0.00,WUHU216DAVISVP2,2013-01-21 03:46:00,
2013-01-20 22:51:00,21.4,10.7,30.20,SW,226,6.0,7.0,63,0.00,RMK !SN!,RMK !SN!,0.00,WUHU216DAVISVP2,2013-01-21 03:51:00,
2013-01-20 22:56:00,21.3,10.7,30.20,SSW,200,3.0,7.0,63,0.00,RMK !SN!,RMK !SN!,0.00,WUHU216DAVISVP2,2013-01-21 03:56:00,
2013-01-20 23:01:00,21.3,10.7,30.19,SSW,195,0.0,7.0,63,0.00,RMK !SN!,RMK !SN!,0.00,WUHU216DAVISVP2,2013-01-21 04:01:00,
2013-01-20 23:06:00,21.3,10.7,30.19,South,174,1.0,7.0,63,0.00,RMK !SN!,RMK !SN!,0.00,WUHU216DAVISVP2,2013-01-21 04:06:00,
2013-01-20 23:11:00,21.2,11.0,30.20,South,184,1.0,7.0,64,0.00,RMK !SN!,RMK !SN!,0.00,WUHU216DAVISVP2,2013-01-21 04:11:00,
2013-01-20 23:16:00,21.2,11.0,30.19,West,281,1.0,5.0,64,0.00,RMK !SN!,RMK !SN!,0.00,WUHU216DAVISVP2,2013-01-21 04:16:00,
2013-01-20 23:21:00,21.1,10.9,30.19,SSE,156,2.0,5.0,64,0.00,RMK !SN!,RMK !SN!,0.00,WUHU216DAVISVP2,2013-01-21 04:21:00,
2013-01-20 23:26:00,21.1,10.9,30.19,SE,142,1.0,6.0,64,0.00,RMK !SN!,RMK !SN!,0.00,WUHU216DAVISVP2,2013-01-21 04:26:00,
2013-01-20 23:31:00,21.0,10.8,30.19,SSE,159,1.0,6.0,64,0.00,RMK !SN!,RMK !SN!,0.00,WUHU216DAVISVP2,2013-01-21 04:31:00,
2013-01-20 23:36:00,20.9,11.0,30.19,South,170,4.0,6.0,65,0.00,RMK !SN!,RMK !SN!,0.00,WUHU216DAVISVP2,2013-01-21 04:36:00,
2013-01-20 23:41:00,20.9,11.0,30.19,SSW,202,0.0,6.0,65,0.00,RMK !SN!,RMK !SN!,0.00,WUHU216DAVISVP2,2013-01-21 04:41:00,
2013-01-20 23:46:00,20.9,11.4,30.19,SSW,198,0.0,6.0,66,0.00,RMK !SN!,RMK !SN!,0.00,WUHU216DAVISVP2,2013-01-21 04:46:00,
2013-01-20 23:51:00,20.9,11.7,30.19,SSE,163,1.0,6.0,67,0.00,RMK !SN!,RMK !SN!,0.00,WUHU216DAVISVP2,2013-01-21 04:51:00,
2013-01-20 23:56:00,20.9,11.7,30.19,South,177,2.0,4.0,67,0.00,RMK !SN!,RMK !SN!,0.00,WUHU216DAVISVP2,2013-01-21 04:56:00,